Time;durP1;ratioP1;P1;durP2;ratioP2;P2;SDS_P1;SDS_P2;PMS_P1;PMS_P2;Temp;Humidity;BMP_temperature;BMP_pressure;BME280_temperature;BME280_humidity;BME280_pressure;Samples;Min_cycle;Max_cycle;Signal;HPM_P1;HPM_P2
2023/02/22 00:00:26;;;;;;;22.60;12.10;;;6.90;99.90;;;;;;4950850;28;20070;-54
2023/02/22 00:02:58;;;;;;;18.45;10.55;;;7.00;99.90;;;;;;4932448;29;20037;-54
2023/02/22 00:05:26;;;;;;;23.95;10.63;;;;;;;;;;4933791;29;20530;-58
2023/02/22 00:07:55;;;;;;;20.85;11.40;;;6.90;99.90;;;;;;4934341;29;20030;-53
2023/02/22 00:10:22;;;;;;;22.77;11.73;;;6.60;99.90;;;;;;4935631;29;20024;-48
2023/02/22 00:12:52;;;;;;;21.83;11.25;;;6.60;99.90;;;;;;4935868;29;20023;-50
2023/02/22 00:15:26;;;;;;;22.83;11.63;;;6.60;99.90;;;;;;4935758;29;20031;-49
2023/02/22 00:17:52;;;;;;;20.45;13.38;;;6.50;99.90;;;;;;4935443;29;20028;-48
2023/02/22 00:20:18;;;;;;;19.80;12.32;;;6.40;99.90;;;;;;4932801;29;20181;-53
2023/02/22 00:22:45;;;;;;;32.55;14.07;;;6.60;99.90;;;;;;4932305;29;20024;-52
2023/02/22 00:25:13;;;;;;;23.48;12.48;;;6.60;99.90;;;;;;4933988;29;20031;-48
2023/02/22 00:27:38;;;;;;;21.38;12.02;;;6.20;99.90;;;;;;4933448;29;20111;-53
2023/02/22 00:30:06;;;;;;;27.90;11.77;;;6.20;99.90;;;;;;4934842;29;20119;-53
2023/02/22 00:32:33;;;;;;;26.13;13.48;;;6.20;99.90;;;;;;4935149;29;20056;-56
2023/02/22 00:34:58;;;;;;;18.60;11.57;;;6.10;99.90;;;;;;4934896;29;20103;-49
2023/02/22 00:37:24;;;;;;;19.73;11.55;;;5.70;99.90;;;;;;4934893;29;20236;-49
2023/02/22 00:39:50;;;;;;;21.27;10.68;;;6.20;99.90;;;;;;4934768;29;20035;-54
2023/02/22 00:42:17;;;;;;;60.35;39.03;;;6.10;99.90;;;;;;4934753;29;20035;-52
2023/02/22 00:44:43;;;;;;;166.30;95.43;;;6.10;99.90;;;;;;4934738;29;20586;-49
2023/02/22 00:47:09;;;;;;;136.30;69.65;;;6.10;99.90;;;;;;4934609;29;20035;-51
2023/02/22 00:49:35;;;;;;;27.35;14.90;;;5.90;99.90;;;;;;4934851;29;20078;-52
2023/02/22 00:52:01;;;;;;;31.60;14.70;;;5.90;99.90;;;;;;4934754;29;20026;-53
2023/02/22 00:54:27;;;;;;;26.75;15.23;;;6.00;99.90;;;;;;4934776;29;20020;-49
2023/02/22 00:56:52;;;;;;;23.27;15.60;;;6.00;99.90;;;;;;4934274;29;20027;-53
2023/02/22 00:59:18;;;;;;;23.70;14.57;;;6.00;99.90;;;;;;4934256;29;20039;-49
2023/02/22 01:01:43;;;;;;;28.95;14.75;;;6.10;99.90;;;;;;4934235;29;20035;-53
2023/02/22 01:04:09;;;;;;;25.70;14.07;;;6.20;99.90;;;;;;4934272;29;20083;-51
2023/02/22 01:06:35;;;;;;;21.20;14.05;;;6.20;99.90;;;;;;4934048;29;20035;-52
2023/02/22 01:09:02;;;;;;;27.27;11.93;;;6.20;99.90;;;;;;4934318;29;20028;-49
2023/02/22 01:11:27;;;;;;;25.80;13.73;;;6.10;99.90;;;;;;4934452;29;20028;-49
2023/02/22 01:13:54;;;;;;;23.05;13.77;;;6.10;99.90;;;;;;4934146;29;20103;-54
2023/02/22 01:16:20;;;;;;;18.75;11.90;;;6.00;99.90;;;;;;4933987;29;20079;-52
2023/02/22 01:18:45;;;;;;;23.88;11.35;;;5.90;99.90;;;;;;4934275;29;20031;-49
2023/02/22 01:21:11;;;;;;;21.15;12.25;;;5.80;99.90;;;;;;4934286;29;20063;-51
2023/02/22 01:23:36;;;;;;;18.45;12.18;;;5.70;99.90;;;;;;4934248;29;20497;-53
2023/02/22 01:26:04;;;;;;;20.63;11.70;;;5.70;99.90;;;;;;4934003;29;20035;-49
2023/02/22 01:28:33;;;;;;;20.63;12.88;;;5.60;99.90;;;;;;4934164;29;20035;-49
2023/02/22 01:31:00;;;;;;;24.58;12.43;;;5.70;99.90;;;;;;4934170;29;20059;-48
2023/02/22 01:33:26;;;;;;;23.73;12.43;;;5.70;99.90;;;;;;4934505;29;20551;-48
2023/02/22 01:35:51;;;;;;;21.25;13.18;;;5.70;99.90;;;;;;4934035;29;20111;-49
2023/02/22 01:38:17;;;;;;;23.15;13.45;;;5.70;99.90;;;;;;4934144;29;20031;-51
2023/02/22 01:40:47;;;;;;;20.65;11.93;;;5.60;99.90;;;;;;4933945;29;20143;-48
2023/02/22 01:43:32;;;;;;;21.73;13.25;;;5.60;99.90;;;;;;4934252;29;20035;-49
2023/02/22 01:46:02;;;;;;;23.77;13.65;;;5.60;99.90;;;;;;4948622;29;20028;-53
2023/02/22 01:48:44;;;;;;;22.80;13.20;;;5.50;99.90;;;;;;4934188;29;20031;-52
2023/02/22 01:51:19;;;;;;;23.15;13.00;;;5.50;99.90;;;;;;4933869;29;20023;-54
2023/02/22 01:53:51;;;;;;;19.45;12.32;;;5.60;99.90;;;;;;4933039;29;20035;-52
2023/02/22 01:56:18;;;;;;;26.33;13.10;;;5.60;99.90;;;;;;4936948;29;20103;-53
2023/02/22 01:58:48;;;;;;;20.13;12.73;;;5.50;99.90;;;;;;4937833;29;20031;-52
2023/02/22 02:01:16;;;;;;;20.98;11.95;;;5.60;99.90;;;;;;4937837;29;20560;-50
2023/02/22 02:03:42;;;;;;;21.50;12.27;;;5.60;99.90;;;;;;4938382;29;20020;-51
2023/02/22 02:06:13;;;;;;;24.73;13.75;;;5.70;99.90;;;;;;4938473;29;20028;-50
2023/02/22 02:09:03;;;;;;;20.58;13.32;;;5.70;99.90;;;;;;4938066;29;20028;-49
2023/02/22 02:11:30;;;;;;;23.50;12.80;;;5.70;99.90;;;;;;4937622;29;20023;-51
2023/02/22 02:13:57;;;;;;;23.08;12.48;;;5.70;99.90;;;;;;4948286;28;20030;-51
2023/02/22 02:16:25;;;;;;;21.00;12.75;;;5.70;99.90;;;;;;4975825;28;20383;-52
2023/02/22 02:18:51;;;;;;;17.25;12.13;;;5.70;99.90;;;;;;4975817;28;20102;-53
2023/02/22 02:21:53;;;;;;;19.45;12.18;;;5.60;99.90;;;;;;4975899;28;20034;-53
2023/02/22 02:24:49;;;;;;;21.23;12.60;;;5.60;99.90;;;;;;4975694;28;20022;-51
2023/02/22 02:27:21;;;;;;;;;;;5.60;99.90;;;;;;4974497;28;20034;-51
2023/02/22 02:30:21;;;;;;;19.35;11.95;;;5.50;99.90;;;;;;4975654;28;20333;-53
2023/02/22 02:32:57;;;;;;;25.55;12.82;;;5.60;99.90;;;;;;4975644;28;20037;-49
2023/02/22 02:35:34;;;;;;;16.70;10.93;;;5.50;99.90;;;;;;4975515;28;20023;-48
2023/02/22 02:38:09;;;;;;;19.13;11.35;;;5.50;99.90;;;;;;4975437;28;20157;-50
2023/02/22 02:40:57;;;;;;;23.05;11.75;;;5.50;99.90;;;;;;4975483;28;20399;-49
2023/02/22 02:43:31;;;;;;;18.95;11.43;;;5.50;99.90;;;;;;4976399;28;20538;-51
2023/02/22 02:46:17;;;;;;;26.25;11.20;;;5.40;99.90;;;;;;4975493;28;20062;-50
2023/02/22 02:48:48;;;;;;;18.60;11.20;;;5.30;99.90;;;;;;4975431;28;20030;-48
2023/02/22 02:51:16;;;;;;;20.45;11.52;;;5.20;99.90;;;;;;4975871;28;20106;-48
2023/02/22 02:53:45;;;;;;;24.92;11.85;;;5.10;99.90;;;;;;4975429;28;20031;-48
2023/02/22 02:56:10;;;;;;;19.38;11.43;;;5.10;99.90;;;;;;4975351;28;20023;-49
2023/02/22 02:58:48;;;;;;;15.63;10.00;;;5.00;99.90;;;;;;4975276;28;20061;-50
2023/02/22 03:01:20;;;;;;;17.88;11.13;;;5.00;99.90;;;;;;4974676;28;20018;-49
2023/02/22 03:04:01;;;;;;;16.15;10.27;;;5.00;99.90;;;;;;4975146;28;20070;-48
2023/02/22 03:06:39;;;;;;;17.10;11.68;;;4.90;99.90;;;;;;4974590;28;20064;-49
2023/02/22 03:09:20;;;;;;;19.08;11.13;;;4.90;99.90;;;;;;4975172;28;20034;-50
2023/02/22 03:12:20;;;;;;;15.85;10.07;;;4.90;99.90;;;;;;4975002;28;20019;-50
2023/02/22 03:15:13;;;;;;;18.70;10.23;;;4.90;99.90;;;;;;4953715;28;20085;-52
2023/02/22 03:18:16;;;;;;;13.75;9.27;;;4.90;99.90;;;;;;4974600;28;20046;-51
2023/02/22 03:21:18;;;;;;;18.73;10.45;;;4.90;99.90;;;;;;4974754;28;20038;-50
2023/02/22 03:24:13;;;;;;;21.38;10.50;;;4.90;99.90;;;;;;4974621;28;20033;-51
2023/02/22 03:26:52;;;;;;;21.15;10.68;;;4.90;99.90;;;;;;4974511;28;20026;-49
2023/02/22 03:29:22;;;;;;;14.75;9.90;;;4.90;99.90;;;;;;4974424;28;20509;-50
2023/02/22 03:31:51;;;;;;;14.82;9.70;;;4.90;99.90;;;;;;4974541;28;20058;-51
2023/02/22 03:34:26;;;;;;;16.00;10.93;;;5.00;99.90;;;;;;4974504;28;20394;-53
2023/02/22 03:36:57;;;;;;;16.92;10.38;;;5.00;99.90;;;;;;4973992;28;20513;-51
2023/02/22 03:39:29;;;;;;;17.55;11.38;;;5.00;99.90;;;;;;4974348;28;20039;-51
2023/02/22 03:42:02;;;;;;;16.73;11.23;;;5.00;99.90;;;;;;4974381;28;20068;-48
2023/02/22 03:44:31;;;;;;;17.00;10.48;;;5.00;99.90;;;;;;4974324;28;20042;-52
2023/02/22 03:47:01;;;;;;;14.57;9.77;;;5.00;99.90;;;;;;4971939;28;20031;-53
2023/02/22 03:49:33;;;;;;;16.15;10.88;;;5.00;99.90;;;;;;4955706;28;20031;-50
2023/02/22 03:52:01;;;;;;;11.57;9.32;;;5.00;99.90;;;;;;4954634;28;20027;-49
2023/02/22 03:54:27;;;;;;;15.45;9.88;;;4.90;99.90;;;;;;4954707;28;20027;-48
2023/02/22 03:57:03;;;;;;;24.15;11.10;;;4.90;99.90;;;;;;4954682;28;20028;-50
2023/02/22 03:59:29;;;;;;;14.30;10.90;;;4.90;99.90;;;;;;4954701;28;20023;-49
2023/02/22 04:01:55;;;;;;;19.13;11.90;;;4.80;99.90;;;;;;4954499;28;20447;-48
2023/02/22 04:04:22;;;;;;;17.52;11.35;;;4.90;99.90;;;;;;4954600;28;20028;-52
2023/02/22 04:06:48;;;;;;;16.90;12.13;;;5.00;99.90;;;;;;4954490;28;20096;-51
2023/02/22 04:09:15;;;;;;;19.50;12.95;;;5.00;99.90;;;;;;4954740;28;20061;-48
2023/02/22 04:11:40;;;;;;;21.10;13.38;;;5.00;99.90;;;;;;4954497;28;20047;-49
2023/02/22 04:14:06;;;;;;;19.75;12.88;;;5.00;99.90;;;;;;4954319;28;20427;-49
2023/02/22 04:16:31;;;;;;;20.83;14.05;;;5.10;99.90;;;;;;4953835;28;20107;-48
2023/02/22 04:18:57;;;;;;;19.58;14.55;;;5.00;99.90;;;;;;4953532;28;20483;-50
2023/02/22 04:21:22;;;;;;;19.55;13.10;;;5.00;99.90;;;;;;4953066;28;20016;-48
2023/02/22 04:23:49;;;;;;;18.73;11.88;;;5.00;99.90;;;;;;4954157;28;20023;-49
2023/02/22 04:26:15;;;;;;;17.67;11.57;;;4.90;99.90;;;;;;4954073;28;20022;-52
2023/02/22 04:28:41;;;;;;;13.68;10.93;;;4.90;99.90;;;;;;4953321;28;20035;-50
2023/02/22 04:31:06;;;;;;;22.95;12.65;;;4.80;99.90;;;;;;4953971;28;20050;-48
2023/02/22 04:33:32;;;;;;;16.13;10.73;;;4.80;99.90;;;;;;4954074;28;20034;-49
2023/02/22 04:35:58;;;;;;;15.60;10.43;;;4.70;99.90;;;;;;4952527;28;20027;-50
2023/02/22 04:38:27;;;;;;;21.20;10.98;;;4.60;99.90;;;;;;4954166;28;20034;-51
2023/02/22 04:40:53;;;;;;;13.85;10.77;;;4.60;99.90;;;;;;4953889;28;20023;-50
2023/02/22 04:43:19;;;;;;;17.80;9.88;;;4.50;99.90;;;;;;4953906;28;20114;-48
2023/02/22 04:45:44;;;;;;;14.23;10.73;;;4.40;99.90;;;;;;4953722;28;20105;-48
2023/02/22 04:48:10;;;;;;;13.38;9.82;;;4.40;99.90;;;;;;4953883;28;20039;-51
2023/02/22 04:50:35;;;;;;;17.83;8.82;;;4.20;99.90;;;;;;4953599;28;20039;-50
2023/02/22 04:53:01;;;;;;;13.32;8.88;;;4.20;99.90;;;;;;4953994;28;20027;-53
2023/02/22 04:55:27;;;;;;;11.77;9.07;;;4.10;99.90;;;;;;4953620;28;20510;-52
2023/02/22 04:57:53;;;;;;;12.38;9.35;;;4.10;99.90;;;;;;4953578;28;20027;-52
2023/02/22 05:00:20;;;;;;;12.57;8.80;;;4.10;99.90;;;;;;4953731;28;20037;-53
2023/02/22 05:02:46;;;;;;;14.57;8.88;;;4.10;99.90;;;;;;4953566;28;20469;-50
2023/02/22 05:05:14;;;;;;;15.73;9.88;;;4.10;99.90;;;;;;4953154;28;20031;-54
2023/02/22 05:07:40;;;;;;;14.00;9.50;;;4.10;99.90;;;;;;4953117;28;20035;-53
2023/02/22 05:10:06;;;;;;;14.18;9.18;;;4.20;99.90;;;;;;4953508;28;20101;-53
2023/02/22 05:12:31;;;;;;;22.13;11.95;;;4.30;99.90;;;;;;4953433;28;20114;-53
2023/02/22 05:14:57;;;;;;;78.35;15.52;;;4.30;99.90;;;;;;4953442;28;20089;-52
2023/02/22 05:17:22;;;;;;;62.28;14.45;;;4.40;99.90;;;;;;4953387;28;20089;-52
2023/02/22 05:19:49;;;;;;;26.40;13.68;;;;;;;;;;4953500;28;20027;-53
2023/02/22 05:22:14;;;;;;;58.92;14.10;;;4.60;99.90;;;;;;4953244;28;20082;-54
2023/02/22 05:24:40;;;;;;;20.38;12.77;;;4.60;99.90;;;;;;4952510;28;20398;-51
2023/02/22 05:27:05;;;;;;;32.45;13.90;;;4.40;99.90;;;;;;4951816;28;20038;-51
2023/02/22 05:29:31;;;;;;;17.92;11.80;;;4.40;99.90;;;;;;4955222;28;20518;-53
2023/02/22 05:31:57;;;;;;;19.55;13.18;;;4.40;99.90;;;;;;4958285;28;20027;-51
2023/02/22 05:34:22;;;;;;;36.53;13.90;;;4.30;99.90;;;;;;4960381;28;20098;-51
2023/02/22 05:36:48;;;;;;;71.65;15.35;;;4.30;99.90;;;;;;4959095;28;20065;-49
2023/02/22 05:39:13;;;;;;;24.80;14.13;;;4.30;99.90;;;;;;4959328;28;20031;-48
2023/02/22 05:41:39;;;;;;;29.98;13.95;;;4.20;99.90;;;;;;4960211;28;20023;-49
2023/02/22 05:44:04;;;;;;;30.35;12.85;;;4.10;99.90;;;;;;4960419;28;20518;-53
2023/02/22 05:46:30;;;;;;;26.95;14.73;;;4.10;99.90;;;;;;4959776;28;20506;-49
2023/02/22 05:48:55;;;;;;;30.55;14.05;;;4.10;99.90;;;;;;4959711;28;20114;-49
2023/02/22 05:51:21;;;;;;;35.65;15.65;;;4.10;99.90;;;;;;4958251;28;20388;-49
2023/02/22 05:53:47;;;;;;;56.25;15.07;;;4.10;99.90;;;;;;4959404;28;20103;-49
2023/02/22 05:56:12;;;;;;;62.53;14.48;;;4.10;99.90;;;;;;4958966;28;20031;-52
2023/02/22 05:58:38;;;;;;;23.85;13.77;;;4.10;99.90;;;;;;4959533;28;20507;-50
2023/02/22 06:01:03;;;;;;;27.25;14.20;;;4.10;99.90;;;;;;4959571;28;20114;-48
2023/02/22 06:03:29;;;;;;;24.27;14.30;;;4.10;99.90;;;;;;4959518;28;20035;-50
2023/02/22 06:05:54;;;;;;;24.25;14.77;;;4.10;99.90;;;;;;4959590;28;20479;-48
2023/02/22 06:08:20;;;;;;;23.85;12.85;;;4.10;99.90;;;;;;4959309;28;20058;-54
2023/02/22 06:10:45;;;;;;;39.17;13.23;;;4.10;99.90;;;;;;4959384;28;20106;-49
2023/02/22 06:13:11;;;;;;;19.85;11.60;;;4.20;99.90;;;;;;4959597;28;20078;-51
2023/02/22 06:15:36;;;;;;;21.10;13.32;;;4.20;99.90;;;;;;4959252;28;20031;-50
2023/02/22 06:18:02;;;;;;;19.55;12.65;;;4.20;99.90;;;;;;4957859;28;20037;-53
2023/02/22 06:20:29;;;;;;;36.50;12.95;;;4.10;99.90;;;;;;4959270;28;20420;-54
2023/02/22 06:22:57;;;;;;;19.58;12.57;;;4.20;99.90;;;;;;4959330;28;20023;-52
2023/02/22 06:25:25;;;;;;;22.90;12.80;;;4.20;99.90;;;;;;4959265;28;20031;-50
2023/02/22 06:27:51;;;;;;;18.77;12.88;;;4.20;99.90;;;;;;4958429;28;20114;-48
2023/02/22 06:30:19;;;;;;;27.27;13.82;;;4.30;99.90;;;;;;4959917;28;20027;-52
2023/02/22 06:32:44;;;;;;;26.35;14.35;;;4.30;99.90;;;;;;4959096;28;20073;-49
2023/02/22 06:35:10;;;;;;;33.88;13.55;;;4.30;99.90;;;;;;4958862;28;20051;-51
2023/02/22 06:37:37;;;;;;;20.77;12.88;;;4.30;99.90;;;;;;4958827;28;20551;-51
2023/02/22 06:40:03;;;;;;;28.73;14.98;;;4.30;99.90;;;;;;4958624;28;20034;-49
2023/02/22 06:42:28;;;;;;;24.75;13.93;;;4.40;99.90;;;;;;4955491;28;20487;-55
2023/02/22 06:44:54;;;;;;;25.30;14.60;;;4.40;99.90;;;;;;4956205;28;20034;-49
2023/02/22 06:47:19;;;;;;;28.25;14.57;;;4.40;99.90;;;;;;4955893;28;20114;-48
2023/02/22 06:49:50;;;;;;;26.65;15.80;;;4.50;99.90;;;;;;4956084;28;20042;-51
2023/02/22 06:52:16;;;;;;;24.63;15.30;;;4.50;99.90;;;;;;4955622;28;20114;-51
2023/02/22 06:54:42;;;;;;;31.50;15.82;;;4.60;99.90;;;;;;4955770;28;20019;-51
2023/02/22 06:57:09;;;;;;;37.03;14.52;;;4.70;99.90;;;;;;4955813;28;20024;-51
2023/02/22 06:59:34;;;;;;;50.22;15.05;;;4.70;99.90;;;;;;4955395;28;20035;-53
2023/02/22 07:02:00;;;;;;;30.98;14.15;;;4.70;99.90;;;;;;4954275;28;20035;-51
2023/02/22 07:04:25;;;;;;;59.25;14.90;;;4.80;99.90;;;;;;4954015;28;20053;-50
2023/02/22 07:06:51;;;;;;;43.40;15.80;;;4.70;99.90;;;;;;4955556;28;20039;-49
2023/02/22 07:09:17;;;;;;;73.05;13.85;;;4.70;99.90;;;;;;4955738;28;20399;-51
2023/02/22 07:11:43;;;;;;;93.45;15.32;;;4.70;99.90;;;;;;4955834;28;20027;-48
2023/02/22 07:14:09;;;;;;;125.88;15.52;;;4.70;99.90;;;;;;4955679;28;20074;-49
2023/02/22 07:16:34;;;;;;;73.95;14.38;;;4.80;99.90;;;;;;4955795;28;20027;-51
2023/02/22 07:19:00;;;;;;;233.98;17.40;;;4.90;99.90;;;;;;4955483;28;20542;-49
2023/02/22 07:21:27;;;;;;;146.02;16.50;;;4.70;99.90;;;;;;4955419;28;20058;-53
2023/02/22 07:23:54;;;;;;;99.78;16.40;;;4.60;99.90;;;;;;4955328;28;20031;-51
2023/02/22 07:26:21;;;;;;;139.27;16.52;;;4.50;99.90;;;;;;4955205;28;20110;-51
2023/02/22 07:28:47;;;;;;;42.70;14.80;;;4.30;99.90;;;;;;4955608;28;20054;-52
2023/02/22 07:31:13;;;;;;;68.82;13.98;;;4.30;99.90;;;;;;4954963;28;20030;-50
2023/02/22 07:33:38;;;;;;;120.70;16.70;;;4.30;99.90;;;;;;4955562;28;20024;-54
2023/02/22 07:36:04;;;;;;;120.65;16.25;;;4.40;99.90;;;;;;4953983;28;20027;-54
2023/02/22 07:38:31;;;;;;;97.63;14.98;;;4.50;99.90;;;;;;4955205;28;20518;-54
2023/02/22 07:40:56;;;;;;;71.03;15.88;;;4.60;99.90;;;;;;4953978;28;20047;-53
2023/02/22 07:43:29;;;;;;;54.83;14.75;;;4.70;99.90;;;;;;4955298;28;20139;-54
2023/02/22 07:45:57;;;;;;;37.65;14.38;;;4.70;99.90;;;;;;4954471;28;20081;-52
2023/02/22 07:48:25;;;;;;;37.88;15.38;;;4.70;99.90;;;;;;4954963;28;20087;-49
2023/02/22 07:50:51;;;;;;;48.58;15.07;;;4.70;99.90;;;;;;4954866;28;20030;-50
2023/02/22 07:53:23;;;;;;;27.83;13.57;;;4.70;99.90;;;;;;4953662;28;20027;-54
2023/02/22 07:55:49;;;;;;;38.20;14.10;;;4.80;99.90;;;;;;4953419;28;20058;-49
2023/02/22 07:58:18;;;;;;;27.23;14.02;;;4.90;99.90;;;;;;4954664;28;20027;-50
2023/02/22 08:00:44;;;;;;;24.55;15.65;;;5.00;99.90;;;;;;4954907;28;20559;-52
2023/02/22 08:03:12;;;;;;;26.65;14.10;;;5.20;99.90;;;;;;4954573;28;20105;-52
2023/02/22 08:05:39;;;;;;;32.17;14.98;;;5.30;99.90;;;;;;4953951;28;20024;-51
2023/02/22 08:08:06;;;;;;;42.88;14.57;;;5.50;99.90;;;;;;4954075;28;20043;-50
2023/02/22 08:10:34;;;;;;;102.07;15.75;;;5.50;99.90;;;;;;4954500;28;20122;-52
2023/02/22 08:12:59;;;;;;;37.88;14.18;;;5.50;99.90;;;;;;4954448;28;20027;-49
2023/02/22 08:15:30;;;;;;;27.40;15.88;;;5.60;99.90;;;;;;4955086;28;20431;-48
2023/02/22 08:17:57;;;;;;;64.32;15.13;;;5.60;99.90;;;;;;4954345;28;20031;-49
2023/02/22 08:20:23;;;;;;;114.93;15.82;;;5.60;99.90;;;;;;4954156;28;20447;-54
2023/02/22 08:22:49;;;;;;;73.97;14.52;;;5.70;99.90;;;;;;4953986;28;20034;-51
2023/02/22 08:25:16;;;;;;;123.78;15.93;;;5.70;99.90;;;;;;4954505;28;20570;-53
2023/02/22 08:27:42;;;;;;;68.07;15.00;;;5.70;99.90;;;;;;4954027;28;20034;-54
2023/02/22 08:30:14;;;;;;;117.78;14.45;;;5.60;99.90;;;;;;4954229;28;20028;-52
2023/02/22 08:32:40;;;;;;;55.63;13.93;;;5.70;99.90;;;;;;4954035;28;20038;-51
2023/02/22 08:35:05;;;;;;;102.18;14.15;;;5.60;99.90;;;;;;4952683;28;20024;-52
2023/02/22 08:37:31;;;;;;;109.57;15.73;;;5.60;99.90;;;;;;4953763;28;20062;-51
2023/02/22 08:39:56;;;;;;;62.90;15.27;;;5.60;99.90;;;;;;4952064;28;20090;-52
2023/02/22 08:42:22;;;;;;;121.65;15.85;;;5.50;99.90;;;;;;4952424;28;20491;-49
2023/02/22 08:44:48;;;;;;;33.97;14.48;;;5.50;99.90;;;;;;4952816;28;20027;-49
2023/02/22 08:47:14;;;;;;;78.97;16.42;;;5.50;99.90;;;;;;4952365;28;20031;-49
2023/02/22 08:49:40;;;;;;;56.63;15.50;;;5.50;99.90;;;;;;4954040;28;20027;-51
2023/02/22 08:52:06;;;;;;;84.85;16.20;;;5.50;99.90;;;;;;4953838;28;20022;-49
2023/02/22 08:54:32;;;;;;;45.47;15.05;;;5.60;99.90;;;;;;4952517;28;20023;-49
2023/02/22 08:56:57;;;;;;;26.23;14.98;;;5.70;99.90;;;;;;4953816;28;20086;-50
2023/02/22 08:59:23;;;;;;;33.13;14.52;;;5.80;99.90;;;;;;4950330;28;20494;-49
2023/02/22 09:01:48;;;;;;;66.68;15.55;;;5.90;99.90;;;;;;4959650;28;20521;-50
2023/02/22 09:04:14;;;;;;;19.60;13.60;;;6.00;99.90;;;;;;4961294;28;20037;-47
2023/02/22 09:06:40;;;;;;;61.53;15.60;;;6.10;99.90;;;;;;4954747;28;20113;-48
2023/02/22 09:09:06;;;;;;;45.53;15.95;;;6.10;99.90;;;;;;4953708;29;20023;-51
2023/02/22 09:11:32;;;;;;;47.25;16.55;;;6.20;99.90;;;;;;4952693;28;20360;-51
2023/02/22 09:13:57;;;;;;;40.95;15.27;;;6.30;99.90;;;;;;4962243;28;20031;-51
2023/02/22 09:16:22;;;;;;;44.47;16.38;;;6.40;99.90;;;;;;4953371;28;20031;-49
2023/02/22 09:18:48;;;;;;;70.80;16.33;;;6.50;99.90;;;;;;4953658;29;20420;-48
2023/02/22 09:21:13;;;;;;;61.15;16.27;;;6.50;99.90;;;;;;4962729;28;20054;-49
2023/02/22 09:23:40;;;;;;;45.47;15.00;;;6.50;99.90;;;;;;4972903;28;20027;-49
2023/02/22 09:26:07;;;;;;;28.95;16.25;;;6.60;99.90;;;;;;4954804;28;20020;-54
2023/02/22 09:28:33;;;;;;;24.88;14.20;;;6.60;99.90;;;;;;4971574;28;20491;-52
2023/02/22 09:30:58;;;;;;;86.30;17.45;;;6.60;99.90;;;;;;4966616;28;20030;-54
2023/02/22 09:33:24;;;;;;;30.45;16.58;;;6.70;99.90;;;;;;4953655;28;20027;-49
2023/02/22 09:35:50;;;;;;;27.38;15.70;;;6.80;99.90;;;;;;4952420;28;20118;-50
2023/02/22 09:38:21;;;;;;;24.15;16.42;;;6.80;99.90;;;;;;4953394;28;20027;-49
2023/02/22 09:40:54;;;;;;;31.23;14.52;;;6.90;99.90;;;;;;4953428;29;20179;-52
2023/02/22 09:43:23;;;;;;;43.47;13.73;;;7.10;99.90;;;;;;4961819;28;20038;-51
2023/02/22 09:46:20;;;;;;;24.75;13.88;;;7.10;99.90;;;;;;4967690;28;20491;-52
2023/02/22 09:48:58;;;;;;;19.20;13.48;;;7.20;99.90;;;;;;4958449;28;20101;-50
2023/02/22 09:51:52;;;;;;;23.17;14.32;;;7.30;99.90;;;;;;4953039;28;20110;-51
2023/02/22 09:54:28;;;;;;;26.80;15.02;;;7.30;99.90;;;;;;4945046;28;20042;-53
2023/02/22 09:56:57;;;;;;;25.30;16.15;;;7.30;99.90;;;;;;4964324;28;20046;-53
2023/02/22 09:59:28;;;;;;;41.10;15.73;;;7.30;99.90;;;;;;4951771;28;20407;-51
2023/02/22 10:02:25;;;;;;;25.20;16.48;;;7.10;99.90;;;;;;4961437;28;20390;-54
2023/02/22 10:05:21;;;;;;;38.60;17.65;;;7.00;99.90;;;;;;4951749;28;20061;-53
2023/02/22 10:07:54;;;;;;;25.20;18.25;;;7.10;99.90;;;;;;4970785;28;20110;-53
2023/02/22 10:10:23;;;;;;;29.23;18.05;;;7.20;99.90;;;;;;4934555;29;20440;-48
2023/02/22 10:13:08;;;;;;;32.90;19.17;;;7.30;99.90;;;;;;4932935;29;20026;-52
2023/02/22 10:15:53;;;;;;;33.10;19.70;;;7.50;99.90;;;;;;4934350;29;20460;-48
2023/02/22 10:18:53;;;;;;;31.75;20.35;;;7.60;99.90;;;;;;4955276;28;20036;-54
2023/02/22 10:21:48;;;;;;;60.88;23.45;;;7.60;99.90;;;;;;4934417;28;20074;-50
2023/02/22 10:24:58;;;;;;;28.05;18.75;;;7.60;99.90;;;;;;4956471;29;20042;-55
2023/02/22 10:27:29;;;;;;;30.58;20.20;;;7.50;99.90;;;;;;4936906;29;20032;-50
2023/02/22 10:30:05;;;;;;;30.33;19.92;;;7.40;99.90;;;;;;4962828;28;20062;-52
2023/02/22 10:32:42;;;;;;;31.15;21.40;;;7.50;99.90;;;;;;4974642;28;20034;-51
2023/02/22 10:35:18;;;;;;;33.90;21.45;;;7.60;99.90;;;;;;4956631;28;20024;-52
2023/02/22 10:37:44;;;;;;;38.03;21.70;;;7.70;99.90;;;;;;4955587;28;20031;-50
2023/02/22 10:40:16;;;;;;;29.40;20.02;;;7.70;99.90;;;;;;4956444;28;20027;-50
2023/02/22 10:42:42;;;;;;;37.85;22.60;;;7.80;99.90;;;;;;4955755;29;20027;-49
2023/02/22 10:45:35;;;;;;;37.85;21.85;;;7.70;99.90;;;;;;4956400;28;20432;-49
2023/02/22 10:48:07;;;;;;;29.30;20.80;;;7.80;99.90;;;;;;4968752;28;20545;-49
2023/02/22 10:50:35;;;;;;;35.35;23.15;;;8.00;99.90;;;;;;4975662;28;20027;-49
2023/02/22 10:53:01;;;;;;;38.92;24.88;;;8.00;99.90;;;;;;4975577;28;20027;-51
2023/02/22 10:55:27;;;;;;;38.42;24.13;;;8.30;99.90;;;;;;4975757;28;20034;-53
2023/02/22 10:58:03;;;;;;;34.88;22.65;;;8.60;99.90;;;;;;4975183;28;20390;-51
2023/02/22 11:00:38;;;;;;;29.80;20.10;;;8.80;99.90;;;;;;4959164;28;20025;-53
2023/02/22 11:03:19;;;;;;;34.70;21.63;;;9.10;99.90;;;;;;4956264;29;20499;-52
2023/02/22 11:05:45;;;;;;;42.13;21.98;;;9.30;99.90;;;;;;4955657;29;20035;-53
2023/02/22 11:08:19;;;;;;;35.20;22.75;;;9.50;99.90;;;;;;4955778;28;20499;-55
2023/02/22 11:10:49;;;;;;;33.53;21.25;;;9.60;99.90;;;;;;4955834;29;20078;-55
2023/02/22 11:13:26;;;;;;;33.53;20.75;;;9.80;99.90;;;;;;4973788;28;20034;-56
2023/02/22 11:15:53;;;;;;;30.35;21.23;;;9.80;99.90;;;;;;4954135;28;20118;-53
2023/02/22 11:18:33;;;;;;;30.58;21.40;;;10.00;99.90;;;;;;4965942;28;20026;-54
2023/02/22 11:21:09;;;;;;;28.60;19.25;;;10.10;99.90;;;;;;4961533;28;20222;-50
2023/02/22 11:23:37;;;;;;;27.27;18.90;;;10.20;99.90;;;;;;4953796;28;20324;-50
2023/02/22 11:26:13;;;;;;;23.55;18.17;;;10.20;99.90;;;;;;4952749;28;20039;-51
2023/02/22 11:28:48;;;;;;;29.42;19.55;;;10.40;99.90;;;;;;4955303;28;20023;-55
2023/02/22 11:31:15;;;;;;;27.73;20.42;;;10.40;99.90;;;;;;4955228;28;20023;-57
2023/02/22 11:34:23;;;;;;;30.17;19.90;;;10.40;99.90;;;;;;4953570;29;20035;-58
2023/02/22 11:36:50;;;;;;;27.60;19.92;;;10.40;99.90;;;;;;4977882;28;20031;-55
2023/02/22 11:39:31;;;;;;;27.05;20.08;;;10.30;99.90;;;;;;4968204;28;20030;-57
2023/02/22 11:41:56;;;;;;;25.27;19.38;;;10.40;99.90;;;;;;4955157;28;20435;-52
2023/02/22 11:44:25;;;;;;;24.50;19.75;;;10.30;99.90;;;;;;4954507;28;20027;-50
2023/02/22 11:46:54;;;;;;;28.35;20.73;;;10.20;99.90;;;;;;4954574;28;20411;-48
2023/02/22 11:49:23;;;;;;;27.63;20.08;;;10.20;99.90;;;;;;4954802;28;20483;-55
2023/02/22 11:52:02;;;;;;;28.58;20.38;;;10.20;99.90;;;;;;4955202;28;20550;-56
2023/02/22 11:54:28;;;;;;;26.13;19.83;;;10.00;99.90;;;;;;4954573;28;20035;-49
2023/02/22 11:57:17;;;;;;;33.17;22.17;;;9.80;99.90;;;;;;4954661;28;20035;-49
2023/02/22 12:00:14;;;;;;;28.70;21.20;;;9.70;99.90;;;;;;4953739;28;20083;-51
2023/02/22 12:03:05;;;;;;;27.70;20.30;;;9.70;99.90;;;;;;4952472;28;20031;-53
2023/02/22 12:05:36;;;;;;;28.80;21.23;;;9.80;99.90;;;;;;4953707;29;20065;-54
2023/02/22 12:08:24;;;;;;;28.45;21.08;;;9.90;99.90;;;;;;4935945;29;20090;-50
2023/02/22 12:11:08;;;;;;;33.00;20.23;;;10.00;99.90;;;;;;4953244;29;20082;-52
2023/02/22 12:14:12;;;;;;;35.63;20.58;;;10.10;99.90;;;;;;4955018;28;20031;-54
2023/02/22 12:17:12;;;;;;;30.45;19.83;;;10.20;99.90;;;;;;4950879;29;20403;-54
2023/02/22 12:19:57;;;;;;;28.00;20.02;;;10.10;99.90;;;;;;4942729;28;20504;-56
2023/02/22 12:22:33;;;;;;;27.65;20.05;;;10.10;99.90;;;;;;4954245;28;20435;-56
2023/02/22 12:25:34;;;;;;;24.67;19.70;;;10.20;99.90;;;;;;4954183;28;20027;-54
2023/02/22 12:28:18;;;;;;;27.60;19.75;;;10.30;99.90;;;;;;4920121;28;20047;-53
2023/02/22 12:30:52;;;;;;;24.35;18.65;;;10.30;99.90;;;;;;4985609;23;20078;-56
2023/02/22 12:33:23;;;;;;;27.25;18.48;;;10.30;99.90;;;;;;5010091;28;20033;-58
2023/02/22 12:35:53;;;;;;;21.98;17.60;;;10.40;99.90;;;;;;5007000;28;20032;-58
2023/02/22 12:38:21;;;;;;;27.40;20.73;;;10.50;99.90;;;;;;5006847;28;20066;-57
2023/02/22 12:40:56;;;;;;;25.17;19.08;;;10.60;99.90;;;;;;4993745;28;20030;-56
2023/02/22 12:43:31;;;;;;;25.67;18.15;;;10.80;99.90;;;;;;5041735;28;20389;-56
2023/02/22 12:46:11;;;;;;;23.33;18.60;;;10.90;99.90;;;;;;5028426;28;20037;-55
2023/02/22 12:48:55;;;;;;;23.55;17.85;;;11.00;99.90;;;;;;5029528;28;20037;-55
2023/02/22 12:51:53;;;;;;;26.73;20.25;;;11.00;99.90;;;;;;5032925;28;20014;-52
2023/02/22 12:54:36;;;;;;;24.90;18.67;;;11.10;99.90;;;;;;5032030;28;20500;-53